Time;durP1;ratioP1;P1;durP2;ratioP2;P2;SDS_P1;SDS_P2;PMS_P1;PMS_P2;Temp;Humidity;BMP_temperature;BMP_pressure;BME280_temperature;BME280_humidity;BME280_pressure;Samples;Min_cycle;Max_cycle;Signal;HPM_P1;HPM_P2
2023/05/06 00:01:38;;;;;;;25.40;16.87;;;;;;;;;;4948169;29;20440;-74
2023/05/06 00:04:04;;;;;;;20.17;17.03;;;;;;;;;;4933035;29;20435;-74
2023/05/06 00:06:32;;;;;;;23.40;17.47;;;;;;;;;;4949146;29;20430;-76
2023/05/06 00:08:58;;;;;;;23.07;17.37;;;;;;;;;;4937711;29;20569;-74
2023/05/06 00:11:24;;;;;;;28.53;17.20;;;;;;;;;;4946611;29;20886;-75
2023/05/06 00:13:50;;;;;;;23.27;17.13;;;;;;;;;;4940065;29;20450;-74
2023/05/06 00:16:16;;;;;;;25.37;17.53;;;;;;;;;;4949024;29;20481;-74
2023/05/06 00:18:42;;;;;;;31.50;19.13;;;;;;;;;;4938385;29;21092;-74
2023/05/06 00:21:08;;;;;;;35.07;18.60;;;;;;;;;;4942035;29;20440;-75
2023/05/06 00:23:34;;;;;;;33.77;20.60;;;;;;;;;;4945772;29;20949;-74
2023/05/06 00:26:00;;;;;;;30.30;19.97;;;;;;;;;;4948856;29;20833;-74
2023/05/06 00:28:26;;;;;;;29.47;21.00;;;;;;;;;;4944640;28;20454;-75
2023/05/06 00:30:52;;;;;;;33.77;20.60;;;;;;;;;;4948770;29;20817;-74
2023/05/06 00:33:18;;;;;;;35.57;21.77;;;;;;;;;;4945582;29;20457;-75
2023/05/06 00:35:44;;;;;;;33.50;20.80;;;;;;;;;;4948559;29;20850;-74
2023/05/06 00:38:11;;;;;;;39.13;19.70;;;;;;;;;;4944437;29;20470;-74
2023/05/06 00:40:38;;;;;;;34.10;20.50;;;;;;;;;;4948629;29;20450;-75
2023/05/06 00:43:04;;;;;;;36.23;22.07;;;;;;;;;;4945127;28;21138;-75
2023/05/06 00:45:30;;;;;;;35.00;20.67;;;;;;;;;;4948927;29;20468;-75
2023/05/06 00:47:56;;;;;;;28.00;19.47;;;;;;;;;;4944452;29;20934;-74
2023/05/06 00:50:23;;;;;;;30.97;19.80;;;;;;;;;;4930845;29;20636;-74
2023/05/06 00:52:49;;;;;;;37.08;25.38;;;;;;;;;;4942976;29;20445;-75
2023/05/06 00:55:15;;;;;;;34.80;21.33;;;;;;;;;;4948196;29;20431;-74
2023/05/06 00:57:41;;;;;;;30.47;19.27;;;;;;;;;;4926407;29;20840;-76
2023/05/06 01:00:10;;;;;;;29.63;20.03;;;;;;;;;;4928938;29;20697;-74
2023/05/06 01:02:36;;;;;;;30.93;19.20;;;;;;;;;;4942563;29;20517;-75
2023/05/06 01:05:02;;;;;;;30.80;17.90;;;;;;;;;;4939915;29;20506;-73
2023/05/06 01:07:28;;;;;;;31.33;19.43;;;;;;;;;;4943522;29;21016;-73
2023/05/06 01:10:17;;;;;;;39.93;19.90;;;;;;;;;;4948131;29;20489;-74
2023/05/06 01:12:48;;;;;;;41.53;19.83;;;;;;;;;;4903475;29;20993;-75
2023/05/06 01:15:21;;;;;;;34.03;20.03;;;;;;;;;;4929070;29;20466;-74
2023/05/06 01:17:50;;;;;;;27.33;18.60;;;;;;;;;;4943769;29;20442;-74
2023/05/06 01:20:19;;;;;;;32.70;19.20;;;;;;;;;;4947134;28;20434;-75
2023/05/06 01:22:45;;;;;;;36.73;20.03;;;;;;;;;;4940051;29;20969;-74
2023/05/06 01:25:19;;;;;;;31.90;20.87;;;;;;;;;;4945671;29;20426;-74
2023/05/06 01:27:45;;;;;;;31.43;20.10;;;;;;;;;;4944285;29;20448;-75
2023/05/06 01:30:12;;;;;;;44.53;19.10;;;;;;;;;;4947883;29;20472;-75
2023/05/06 01:32:58;;;;;;;27.57;18.97;;;;;;;;;;4945216;29;20433;-75
2023/05/06 01:35:34;;;;;;;34.43;20.30;;;;;;;;;;4933237;29;20973;-75
2023/05/06 01:38:00;;;;;;;48.17;17.57;;;;;;;;;;4935987;29;20502;-75
2023/05/06 01:40:29;;;;;;;30.20;18.37;;;;;;;;;;4940210;29;20458;-75
2023/05/06 01:42:55;;;;;;;28.63;18.40;;;;;;;;;;4942515;29;20511;-75
2023/05/06 01:45:21;;;;;;;33.17;18.77;;;;;;;;;;4947266;29;20792;-75
2023/05/06 01:47:47;;;;;;;44.20;18.70;;;;;;;;;;4943708;29;20442;-75
2023/05/06 01:50:13;;;;;;;29.73;17.40;;;;;;;;;;4941093;29;20587;-75
2023/05/06 01:52:40;;;;;;;35.33;16.00;;;;;;;;;;4944249;29;20434;-74
2023/05/06 01:55:06;;;;;;;25.43;16.10;;;;;;;;;;4943913;29;20438;-74
2023/05/06 01:57:32;;;;;;;28.27;15.43;;;;;;;;;;4944728;29;20461;-74
2023/05/06 01:59:58;;;;;;;24.93;17.40;;;;;;;;;;4946099;29;20422;-75
2023/05/06 02:02:24;;;;;;;23.57;16.70;;;;;;;;;;4942174;29;21029;-74
2023/05/06 02:04:52;;;;;;;33.30;17.93;;;;;;;;;;4947860;29;20446;-74
2023/05/06 02:07:18;;;;;;;28.50;15.73;;;;;;;;;;4944490;29;20429;-75
2023/05/06 02:09:44;;;;;;;30.10;16.63;;;;;;;;;;4948392;29;20472;-74
2023/05/06 02:12:10;;;;;;;45.70;17.10;;;;;;;;;;4946650;29;20430;-74
2023/05/06 02:14:36;;;;;;;58.77;15.73;;;;;;;;;;4947348;29;20430;-75
2023/05/06 02:17:03;;;;;;;46.53;16.13;;;;;;;;;;4935107;29;20963;-75
2023/05/06 02:19:29;;;;;;;41.43;17.30;;;;;;;;;;4939102;29;20469;-75
2023/05/06 02:21:56;;;;;;;31.37;18.43;;;;;;;;;;4939954;29;20957;-75
2023/05/06 02:24:22;;;;;;;34.67;17.37;;;;;;;;;;4931657;29;20445;-75
2023/05/06 02:26:48;;;;;;;38.73;17.00;;;;;;;;;;4937692;29;20941;-75
2023/05/06 02:29:14;;;;;;;41.77;16.43;;;;;;;;;;4946863;29;20993;-75
2023/05/06 02:31:40;;;;;;;42.10;17.77;;;;;;;;;;4941598;29;20470;-75
2023/05/06 02:34:06;;;;;;;33.00;15.07;;;;;;;;;;4945241;29;20942;-72
2023/05/06 02:36:32;;;;;;;56.27;16.27;;;;;;;;;;4947476;29;20433;-74
2023/05/06 02:38:58;;;;;;;83.80;17.60;;;;;;;;;;4949371;29;20434;-75
2023/05/06 02:41:24;;;;;;;27.20;15.70;;;;;;;;;;4946717;29;20554;-74
2023/05/06 02:43:50;;;;;;;38.63;17.00;;;;;;;;;;4943135;29;20430;-75
2023/05/06 02:46:16;;;;;;;86.73;18.20;;;;;;;;;;4948004;29;20441;-74
2023/05/06 02:48:42;;;;;;;35.67;15.83;;;;;;;;;;4945250;29;20814;-74
2023/05/06 02:51:08;;;;;;;36.27;15.97;;;;;;;;;;4946262;29;20430;-74
2023/05/06 02:53:34;;;;;;;90.87;17.37;;;;;;;;;;4946805;29;20450;-74
2023/05/06 02:56:00;;;;;;;47.53;15.80;;;;;;;;;;4948427;29;20808;-75
2023/05/06 02:58:26;;;;;;;57.00;16.00;;;;;;;;;;4947999;29;20411;-74
2023/05/06 03:00:52;;;;;;;68.87;15.60;;;;;;;;;;4947575;29;20576;-74
2023/05/06 03:03:18;;;;;;;67.87;15.93;;;;;;;;;;4947955;29;20438;-74
2023/05/06 03:05:44;;;;;;;53.20;16.10;;;;;;;;;;4947221;29;20454;-75
2023/05/06 03:08:10;;;;;;;34.73;16.63;;;;;;;;;;4950937;29;20437;-74
2023/05/06 03:10:36;;;;;;;32.60;15.40;;;;;;;;;;4948744;29;20469;-75
2023/05/06 03:13:02;;;;;;;121.93;17.37;;;;;;;;;;4937993;29;20958;-74
2023/05/06 03:15:28;;;;;;;20.17;12.90;;;;;;;;;;4950783;29;20426;-73
2023/05/06 03:17:54;;;;;;;21.47;15.37;;;;;;;;;;4927686;29;20552;-75
2023/05/06 03:20:20;;;;;;;54.03;15.20;;;;;;;;;;4938912;29;20820;-75
2023/05/06 03:22:46;;;;;;;24.80;15.63;;;;;;;;;;4941121;29;20438;-74
2023/05/06 03:25:12;;;;;;;43.27;16.47;;;;;;;;;;4927791;29;20513;-75
2023/05/06 03:27:38;;;;;;;30.50;14.47;;;;;;;;;;4943885;29;20445;-75
2023/05/06 03:30:05;;;;;;;26.53;14.37;;;;;;;;;;4948014;28;20562;-75
2023/05/06 03:32:31;;;;;;;30.63;14.80;;;;;;;;;;4941822;29;20451;-74
2023/05/06 03:34:57;;;;;;;30.60;14.13;;;;;;;;;;4945429;29;20513;-75
2023/05/06 03:37:23;;;;;;;21.50;13.70;;;;;;;;;;4941538;29;20442;-75
2023/05/06 03:39:49;;;;;;;45.63;14.00;;;;;;;;;;4938448;29;20426;-75
2023/05/06 03:42:15;;;;;;;19.33;12.03;;;;;;;;;;4939633;29;20937;-74
2023/05/06 03:44:41;;;;;;;19.77;13.70;;;;;;;;;;4944945;29;20417;-75
2023/05/06 03:47:07;;;;;;;33.07;14.53;;;;;;;;;;4945756;29;20504;-74
2023/05/06 03:49:33;;;;;;;23.13;12.77;;;;;;;;;;4941213;29;20515;-74
2023/05/06 03:51:59;;;;;;;49.57;14.23;;;;;;;;;;4942851;29;20588;-74
2023/05/06 03:54:25;;;;;;;27.90;12.70;;;;;;;;;;4942046;29;20915;-74
2023/05/06 03:56:51;;;;;;;29.13;13.63;;;;;;;;;;4941523;29;20439;-75
2023/05/06 03:59:17;;;;;;;31.57;11.97;;;;;;;;;;4943982;29;20414;-75
2023/05/06 04:01:43;;;;;;;16.07;11.43;;;;;;;;;;4940239;29;20438;-75
2023/05/06 04:04:09;;;;;;;17.03;11.33;;;;;;;;;;4952059;29;20456;-75
2023/05/06 04:06:37;;;;;;;21.47;12.00;;;;;;;;;;4946143;29;20430;-74
2023/05/06 04:09:05;;;;;;;17.67;11.67;;;;;;;;;;4944064;29;20525;-74
2023/05/06 04:11:31;;;;;;;55.80;12.90;;;;;;;;;;4951838;28;20434;-74
2023/05/06 04:13:57;;;;;;;58.20;12.20;;;;;;;;;;4949272;29;20457;-75
2023/05/06 04:16:23;;;;;;;15.03;11.50;;;;;;;;;;4943958;29;20439;-75
2023/05/06 04:18:50;;;;;;;15.00;10.93;;;;;;;;;;4915603;29;20463;-74
2023/05/06 04:21:17;;;;;;;19.90;11.03;;;;;;;;;;4943778;29;20462;-74
2023/05/06 04:23:43;;;;;;;17.50;11.83;;;;;;;;;;4939770;29;20736;-75
2023/05/06 04:26:09;;;;;;;16.03;10.13;;;;;;;;;;4937862;29;20443;-74
2023/05/06 04:28:35;;;;;;;22.10;10.00;;;;;;;;;;4936059;29;20463;-74
2023/05/06 04:31:01;;;;;;;20.50;10.37;;;;;;;;;;4936801;29;20435;-74
2023/05/06 04:33:28;;;;;;;69.57;11.47;;;;;;;;;;4944410;29;20516;-76
2023/05/06 04:35:58;;;;;;;51.00;9.60;;;;;;;;;;4942328;29;20511;-74
2023/05/06 04:38:26;;;;;;;16.70;9.97;;;;;;;;;;4944513;28;20473;-74
2023/05/06 04:40:52;;;;;;;14.07;9.90;;;;;;;;;;4947013;29;20469;-74
2023/05/06 04:43:18;;;;;;;14.07;10.60;;;;;;;;;;4931884;29;20449;-76
2023/05/06 04:45:50;;;;;;;16.47;9.60;;;;;;;;;;4933006;29;20605;-74
2023/05/06 04:48:21;;;;;;;14.13;9.53;;;;;;;;;;4933016;29;20441;-74
2023/05/06 04:50:47;;;;;;;16.70;9.40;;;;;;;;;;4946026;29;20956;-74
2023/05/06 04:53:13;;;;;;;9.70;8.10;;;;;;;;;;4942918;29;20442;-74
2023/05/06 04:55:39;;;;;;;18.53;10.00;;;;;;;;;;4944950;29;20434;-74
2023/05/06 04:58:08;;;;;;;23.30;7.90;;;;;;;;;;4946334;29;20450;-74
2023/05/06 05:00:37;;;;;;;17.80;9.87;;;;;;;;;;4946785;29;20534;-75
2023/05/06 05:03:03;;;;;;;12.40;9.50;;;;;;;;;;4935162;29;20471;-75
2023/05/06 05:05:30;;;;;;;16.13;9.40;;;;;;;;;;4948839;29;20446;-75
2023/05/06 05:07:56;;;;;;;14.00;9.43;;;;;;;;;;4947238;29;20956;-75
2023/05/06 05:10:22;;;;;;;13.40;9.10;;;;;;;;;;4934716;29;20470;-75
2023/05/06 05:12:48;;;;;;;13.17;8.93;;;;;;;;;;4943983;29;20458;-75
2023/05/06 05:15:14;;;;;;;16.60;9.60;;;;;;;;;;4940924;29;20517;-75
2023/05/06 05:17:40;;;;;;;18.13;10.40;;;;;;;;;;4942278;29;20907;-75
2023/05/06 05:20:07;;;;;;;12.13;10.90;;;;;;;;;;4942623;29;20517;-77
2023/05/06 05:22:33;;;;;;;9.50;8.60;;;;;;;;;;4934447;29;20448;-75
2023/05/06 05:24:59;;;;;;;8.47;7.70;;;;;;;;;;4945556;29;20941;-74
2023/05/06 05:27:25;;;;;;;8.43;7.73;;;;;;;;;;4937299;29;20445;-74
2023/05/06 05:29:51;;;;;;;7.80;7.17;;;;;;;;;;4940615;29;20553;-75
2023/05/06 05:32:17;;;;;;;8.37;7.67;;;;;;;;;;4942271;29;20525;-77
2023/05/06 05:34:43;;;;;;;8.17;7.47;;;;;;;;;;4932940;29;20449;-76
2023/05/06 05:37:10;;;;;;;8.07;7.40;;;;;;;;;;4942477;29;20722;-76
2023/05/06 05:39:36;;;;;;;6.97;6.40;;;;;;;;;;4917726;29;20466;-75
2023/05/06 05:42:02;;;;;;;6.67;6.30;;;;;;;;;;4942939;29;21169;-75
2023/05/06 05:44:28;;;;;;;7.23;6.83;;;;;;;;;;4942343;29;20423;-75
2023/05/06 05:46:54;;;;;;;7.90;7.20;;;;;;;;;;4937729;29;20856;-75
2023/05/06 05:49:20;;;;;;;8.00;7.37;;;;;;;;;;4940336;29;20467;-76
2023/05/06 05:51:47;;;;;;;7.97;7.47;;;;;;;;;;4931343;28;21043;-76
2023/05/06 05:54:13;;;;;;;8.10;7.50;;;;;;;;;;4936727;29;20520;-75
2023/05/06 05:56:39;;;;;;;9.07;8.47;;;;;;;;;;4938739;29;20426;-76
2023/05/06 05:59:05;;;;;;;10.20;9.40;;;;;;;;;;4938784;29;20490;-76
2023/05/06 06:01:31;;;;;;;10.23;9.37;;;;;;;;;;4921527;29;20779;-76
2023/05/06 06:03:58;;;;;;;10.33;9.53;;;;;;;;;;4954442;29;20446;-75
2023/05/06 06:06:25;;;;;;;10.47;9.77;;;;;;;;;;4946055;29;20501;-75
2023/05/06 06:08:51;;;;;;;10.07;9.17;;;;;;;;;;4945146;29;20572;-77
2023/05/06 06:11:17;;;;;;;8.87;8.13;;;;;;;;;;4942739;29;20922;-77
2023/05/06 06:13:43;;;;;;;10.50;9.70;;;;;;;;;;4938661;29;20442;-77
2023/05/06 06:16:10;;;;;;;10.03;9.23;;;;;;;;;;4938080;29;20521;-77
2023/05/06 06:18:36;;;;;;;10.27;9.57;;;;;;;;;;4938394;29;20462;-75
2023/05/06 06:21:02;;;;;;;10.67;9.87;;;;;;;;;;4938006;29;20477;-77
2023/05/06 06:23:28;;;;;;;11.27;10.27;;;;;;;;;;4942092;29;20445;-77
2023/05/06 06:25:54;;;;;;;11.40;10.30;;;;;;;;;;4944807;29;20434;-76
2023/05/06 06:28:20;;;;;;;12.97;11.63;;;;;;;;;;4945110;29;20461;-77
2023/05/06 06:30:46;;;;;;;11.77;10.80;;;;;;;;;;4944160;29;21218;-76
2023/05/06 06:33:12;;;;;;;11.30;10.20;;;;;;;;;;4947235;29;20453;-76
2023/05/06 06:35:38;;;;;;;13.83;12.60;;;;;;;;;;4940180;29;21029;-76
2023/05/06 06:38:04;;;;;;;11.27;10.37;;;;;;;;;;4946978;29;20545;-75
2023/05/06 06:40:30;;;;;;;12.03;11.13;;;;;;;;;;4944373;29;20474;-77
2023/05/06 06:42:56;;;;;;;12.13;11.10;;;;;;;;;;4938964;29;20602;-76
2023/05/06 06:45:22;;;;;;;10.67;9.97;;;;;;;;;;4943192;29;21132;-76
2023/05/06 06:47:48;;;;;;;12.87;11.80;;;;;;;;;;4947866;29;20449;-77
2023/05/06 06:50:15;;;;;;;11.63;10.53;;;;;;;;;;4947559;29;21145;-76
2023/05/06 06:52:40;;;;;;;11.57;10.67;;;;;;;;;;4947093;29;20448;-76
2023/05/06 06:55:07;;;;;;;10.60;9.80;;;;;;;;;;4936913;29;20430;-77
2023/05/06 06:57:33;;;;;;;9.90;9.20;;;;;;;;;;4947245;29;20438;-76
2023/05/06 06:59:59;;;;;;;10.80;10.00;;;;;;;;;;4950502;29;20529;-76
2023/05/06 07:02:25;;;;;;;9.97;9.20;;;;;;;;;;4940955;29;20534;-74
2023/05/06 07:04:51;;;;;;;10.02;9.32;;;;;;;;;;4932943;29;20403;-76
2023/05/06 07:07:17;;;;;;;9.83;9.07;;;;;;;;;;4938646;29;20202;-78
2023/05/06 07:09:44;;;;;;;8.90;8.30;;;;;;;;;;4945207;29;20572;-75
2023/05/06 07:12:10;;;;;;;8.83;8.20;;;;;;;;;;4945681;29;20541;-76
2023/05/06 07:14:36;;;;;;;10.50;9.60;;;;;;;;;;4944020;29;20442;-76
2023/05/06 07:17:03;;;;;;;8.17;7.67;;;;;;;;;;4943028;29;20447;-77
2023/05/06 07:19:30;;;;;;;8.80;8.17;;;;;;;;;;4948624;28;20430;-75
2023/05/06 07:21:56;;;;;;;8.60;8.10;;;;;;;;;;4943783;29;20439;-75
2023/05/06 07:24:22;;;;;;;8.47;7.90;;;;;;;;;;4944175;29;20420;-76
2023/05/06 07:26:48;;;;;;;8.10;7.60;;;;;;;;;;4947095;29;20426;-76
2023/05/06 07:29:14;;;;;;;7.00;6.50;;;;;;;;;;4949830;28;20505;-76
2023/05/06 07:31:40;;;;;;;7.17;6.70;;;;;;;;;;4935431;29;20793;-75
2023/05/06 07:34:06;;;;;;;7.47;7.00;;;;;;;;;;4937376;29;20514;-75
2023/05/06 07:36:39;;;;;;;6.77;6.47;;;;;;;;;;4940219;29;20438;-75
2023/05/06 07:39:05;;;;;;;6.63;6.13;;;;;;;;;;4932158;29;20569;-75
2023/05/06 07:41:31;;;;;;;5.93;5.73;;;;;;;;;;4937762;29;20541;-75
2023/05/06 07:43:57;;;;;;;9.63;6.57;;;;;;;;;;4945080;29;20541;-75
2023/05/06 07:46:23;;;;;;;6.13;5.73;;;;;;;;;;4941609;29;20449;-75
2023/05/06 07:48:49;;;;;;;6.97;6.60;;;;;;;;;;4947350;29;20520;-76
2023/05/06 07:51:16;;;;;;;6.20;5.83;;;;;;;;;;4946924;28;20466;-76
2023/05/06 07:53:42;;;;;;;6.43;5.93;;;;;;;;;;4946854;29;20453;-75
2023/05/06 07:56:08;;;;;;;6.77;6.47;;;;;;;;;;4936379;28;20546;-75
2023/05/06 07:58:34;;;;;;;6.57;6.27;;;;;;;;;;4947686;28;21032;-75
2023/05/06 08:01:00;;;;;;;7.23;6.20;;;;;;;;;;4932723;29;20442;-75
2023/05/06 08:03:26;;;;;;;5.83;5.60;;;;;;;;;;4938564;29;20558;-75
2023/05/06 08:05:54;;;;;;;6.50;6.20;;;;;;;;;;4941669;29;20537;-75
2023/05/06 08:08:20;;;;;;;5.97;5.70;;;;;;;;;;4939736;29;20418;-76
2023/05/06 08:10:46;;;;;;;4.70;4.50;;;;;;;;;;4941959;29;20628;-75
2023/05/06 08:13:12;;;;;;;5.27;5.10;;;;;;;;;;4937250;29;20407;-75
2023/05/06 08:15:39;;;;;;;5.40;5.20;;;;;;;;;;4937568;29;20426;-75
2023/05/06 08:18:05;;;;;;;4.20;4.10;;;;;;;;;;4944927;29;20422;-76
2023/05/06 08:20:31;;;;;;;4.40;4.20;;;;;;;;;;4934485;29;21280;-75
2023/05/06 08:22:57;;;;;;;4.10;4.00;;;;;;;;;;4945941;29;20430;-75
2023/05/06 08:25:23;;;;;;;3.60;3.50;;;;;;;;;;4942583;29;21034;-77
2023/05/06 08:27:53;;;;;;;4.13;3.93;;;;;;;;;;4945446;28;20551;-75
2023/05/06 08:30:19;;;;;;;4.00;3.90;;;;;;;;;;4939271;28;20477;-75
2023/05/06 08:32:48;;;;;;;3.20;3.13;;;;;;;;;;4940077;29;20815;-76
2023/05/06 08:35:14;;;;;;;3.73;3.63;;;;;;;;;;4939732;29;21048;-76
2023/05/06 08:37:40;;;;;;;4.30;4.00;;;;;;;;;;4936764;29;20466;-74
2023/05/06 08:40:20;;;;;;;3.90;3.70;;;;;;;;;;4941187;29;20489;-75
2023/05/06 08:42:57;;;;;;;3.30;3.20;;;;;;;;;;4939868;29;20438;-75
2023/05/06 08:45:26;;;;;;;2.93;2.90;;;;;;;;;;4939080;29;20418;-75
2023/05/06 08:47:52;;;;;;;2.80;2.70;;;;;;;;;;4943919;29;20434;-75
2023/05/06 08:50:19;;;;;;;3.47;3.37;;;;;;;;;;4941455;29;20471;-76
2023/05/06 08:52:46;;;;;;;2.40;2.40;;;;;;;;;;4937435;29;20839;-75
2023/05/06 08:55:15;;;;;;;2.67;2.57;;;;;;;;;;4947909;29;20454;-74
2023/05/06 08:57:42;;;;;;;3.13;2.50;;;;;;;;;;4943565;29;20835;-75
2023/05/06 09:00:09;;;;;;;1.57;1.57;;;;;;;;;;4942846;29;20419;-75
2023/05/06 09:02:36;;;;;;;1.60;1.60;;;;;;;;;;4941933;29;20465;-75
2023/05/06 09:05:03;;;;;;;2.40;2.40;;;;;;;;;;4936880;29;20439;-75
2023/05/06 09:07:29;;;;;;;2.53;2.43;;;;;;;;;;4944762;29;21252;-75
2023/05/06 09:09:55;;;;;;;2.70;2.70;;;;;;;;;;4939234;29;20502;-75
2023/05/06 09:12:23;;;;;;;2.70;2.60;;;;;;;;;;4946334;28;20438;-75
2023/05/06 09:14:50;;;;;;;2.23;2.13;;;;;;;;;;4935561;29;20502;-76
2023/05/06 09:17:22;;;;;;;2.13;2.13;;;;;;;;;;4936901;29;20976;-75
2023/05/06 09:19:48;;;;;;;1.90;1.90;;;;;;;;;;4936432;29;20482;-76
2023/05/06 09:22:14;;;;;;;2.20;2.20;;;;;;;;;;4930620;29;20530;-76
2023/05/06 09:24:41;;;;;;;1.90;1.90;;;;;;;;;;4935527;29;20423;-76
2023/05/06 09:27:07;;;;;;;2.00;2.00;;;;;;;;;;4937778;29;20437;-76
2023/05/06 09:29:33;;;;;;;1.50;1.50;;;;;;;;;;4939813;29;20528;-75
2023/05/06 09:32:04;;;;;;;1.60;1.60;;;;;;;;;;4932006;29;20796;-74
2023/05/06 09:34:30;;;;;;;1.90;1.80;;;;;;;;;;4936713;29;20421;-76
2023/05/06 09:36:57;;;;;;;1.63;1.63;;;;;;;;;;4938363;29;20473;-76
2023/05/06 09:39:26;;;;;;;1.63;1.60;;;;;;;;;;4937648;29;20795;-75
2023/05/06 09:41:53;;;;;;;1.40;1.40;;;;;;;;;;4938157;29;20481;-75
2023/05/06 09:44:22;;;;;;;1.40;1.40;;;;;;;;;;4939016;29;20423;-75
2023/05/06 09:46:51;;;;;;;1.17;1.17;;;;;;;;;;4939211;28;20499;-75
2023/05/06 09:49:17;;;;;;;1.80;1.77;;;;;;;;;;4944525;29;21035;-75
2023/05/06 09:51:46;;;;;;;1.50;1.40;;;;;;;;;;4942135;29;20449;-76
2023/05/06 09:54:13;;;;;;;1.20;1.10;;;;;;;;;;4934712;29;20439;-76
2023/05/06 09:56:40;;;;;;;1.27;1.27;;;;;;;;;;4937532;29;20600;-74
2023/05/06 09:59:06;;;;;;;1.07;1.07;;;;;;;;;;4928645;29;20438;-77
2023/05/06 10:01:36;;;;;;;1.60;1.60;;;;;;;;;;4943582;29;20458;-76
2023/05/06 10:04:08;;;;;;;1.57;1.57;;;;;;;;;;4945968;29;20555;-75
2023/05/06 10:06:38;;;;;;;1.53;1.53;;;;;;;;;;4942919;29;20441;-76
2023/05/06 10:09:05;;;;;;;1.63;1.00;;;;;;;;;;4946692;29;20532;-75
2023/05/06 10:11:31;;;;;;;1.60;1.60;;;;;;;;;;4942194;29;20459;-76
2023/05/06 10:13:58;;;;;;;1.00;1.00;;;;;;;;;;4946224;29;20438;-76
2023/05/06 10:16:24;;;;;;;1.63;1.00;;;;;;;;;;4941571;28;20820;-77
2023/05/06 10:18:53;;;;;;;0.87;0.87;;;;;;;;;;4938902;29;20431;-76
2023/05/06 10:21:20;;;;;;;5.43;5.13;;;;;;;;;;4942173;29;20797;-76
2023/05/06 10:24:08;;;;;;;0.80;0.80;;;;;;;;;;4935302;29;20442;-75
2023/05/06 10:26:36;;;;;;;0.83;0.83;;;;;;;;;;4937987;29;20438;-74
2023/05/06 10:29:03;;;;;;;1.63;1.50;;;;;;;;;;4945905;28;20472;-74
2023/05/06 10:31:30;;;;;;;1.20;1.20;;;;;;;;;;4942606;29;20477;-75
2023/05/06 10:33:57;;;;;;;2.77;2.67;;;;;;;;;;4945408;29;20727;-77
2023/05/06 10:36:25;;;;;;;1.20;1.20;;;;;;;;;;4933371;29;20532;-76
2023/05/06 10:38:55;;;;;;;1.13;1.13;;;;;;;;;;4921684;29;20434;-77
2023/05/06 10:41:22;;;;;;;2.43;1.17;;;;;;;;;;4939559;28;20969;-77
2023/05/06 10:43:55;;;;;;;1.70;1.70;;;;;;;;;;4933157;29;20851;-76
2023/05/06 10:46:21;;;;;;;1.43;1.10;;;;;;;;;;4940221;29;20423;-76
2023/05/06 10:48:59;;;;;;;1.07;1.07;;;;;;;;;;4939886;29;20563;-76
2023/05/06 10:51:27;;;;;;;1.00;1.00;;;;;;;;;;4935536;29;20422;-76
2023/05/06 10:54:03;;;;;;;0.90;0.90;;;;;;;;;;4936687;28;20688;-76
2023/05/06 10:56:30;;;;;;;1.63;1.20;;;;;;;;;;4946783;29;20412;-77
2023/05/06 10:58:56;;;;;;;1.43;1.43;;;;;;;;;;4943268;29;20765;-77
2023/05/06 11:01:26;;;;;;;1.00;1.00;;;;;;;;;;4945527;29;20968;-75
2023/05/06 11:03:52;;;;;;;0.83;0.83;;;;;;;;;;4943913;29;20800;-75
2023/05/06 11:06:36;;;;;;;1.30;1.20;;;;;;;;;;4947492;29;20449;-77
2023/05/06 11:09:05;;;;;;;4.23;4.00;;;;;;;;;;4946684;29;20508;-76
2023/05/06 11:11:51;;;;;;;1.73;1.73;;;;;;;;;;4945437;29;20599;-77
2023/05/06 11:14:29;;;;;;;1.30;1.30;;;;;;;;;;4937402;29;20450;-77
2023/05/06 11:16:56;;;;;;;1.57;1.57;;;;;;;;;;4942300;29;21237;-76
2023/05/06 11:19:26;;;;;;;2.50;2.30;;;;;;;;;;4941456;29;20438;-74
2023/05/06 11:21:53;;;;;;;1.50;1.50;;;;;;;;;;4945887;29;20521;-78
2023/05/06 11:24:23;;;;;;;1.10;1.10;;;;;;;;;;4946989;29;20807;-76
2023/05/06 11:26:49;;;;;;;1.50;1.40;;;;;;;;;;4948353;29;20809;-74
2023/05/06 11:29:16;;;;;;;1.50;1.50;;;;;;;;;;4947107;28;20794;-75
2023/05/06 11:31:42;;;;;;;1.60;1.50;;;;;;;;;;4947359;29;20828;-76
2023/05/06 11:34:10;;;;;;;1.30;1.30;;;;;;;;;;4945791;29;20454;-76
2023/05/06 11:36:37;;;;;;;2.10;1.47;;;;;;;;;;4946652;29;20453;-75
2023/05/06 11:39:07;;;;;;;1.90;1.90;;;;;;;;;;4945574;29;20534;-76
2023/05/06 11:41:33;;;;;;;1.40;1.30;;;;;;;;;;4934685;29;20974;-76
2023/05/06 11:43:59;;;;;;;1.50;1.50;;;;;;;;;;4942564;29;20830;-75
2023/05/06 11:46:28;;;;;;;1.30;1.30;;;;;;;;;;4925419;29;20995;-76
2023/05/06 11:48:54;;;;;;;1.30;1.30;;;;;;;;;;4920484;29;20697;-74
2023/05/06 11:51:23;;;;;;;1.13;1.13;;;;;;;;;;4917691;29;20444;-76
2023/05/06 11:53:50;;;;;;;1.10;1.10;;;;;;;;;;4924391;29;20444;-77
2023/05/06 11:56:16;;;;;;;1.00;1.00;;;;;;;;;;4924122;29;20447;-74
2023/05/06 11:58:42;;;;;;;1.40;1.40;;;;;;;;;;4926618;29;20441;-75
2023/05/06 12:01:09;;;;;;;1.23;1.23;;;;;;;;;;4918391;29;20546;-74
2023/05/06 12:03:35;;;;;;;1.70;1.60;;;;;;;;;;4928830;29;20506;-75
2023/05/06 12:06:01;;;;;;;1.40;1.40;;;;;;;;;;4924800;29;20435;-76
2023/05/06 12:08:29;;;;;;;1.00;1.00;;;;;;;;;;4929500;29;20522;-75
2023/05/06 12:10:58;;;;;;;1.80;1.80;;;;;;;;;;4925271;29;20986;-76
2023/05/06 12:13:25;;;;;;;1.23;1.20;;;;;;;;;;4916121;29;20499;-75
2023/05/06 12:15:56;;;;;;;1.37;1.37;;;;;;;;;;4920304;29;20867;-76
2023/05/06 12:18:23;;;;;;;1.53;1.40;;;;;;;;;;4924442;29;20431;-77
2023/05/06 12:20:49;;;;;;;1.30;1.30;;;;;;;;;;4920806;29;20672;-74
2023/05/06 12:23:15;;;;;;;1.20;1.20;;;;;;;;;;4920442;29;20431;-77
2023/05/06 12:25:42;;;;;;;2.20;1.50;;;;;;;;;;4924971;29;20439;-76
2023/05/06 12:28:19;;;;;;;1.67;1.67;;;;;;;;;;4914969;29;20458;-77
2023/05/06 12:30:46;;;;;;;1.50;1.23;;;;;;;;;;4921898;29;20963;-78
2023/05/06 12:33:12;;;;;;;2.50;1.27;;;;;;;;;;4928236;29;21759;-77
2023/05/06 12:35:38;;;;;;;1.83;1.80;;;;;;;;;;4925363;29;20495;-78
2023/05/06 12:38:15;;;;;;;1.53;1.53;;;;;;;;;;4943332;29;20490;-76
2023/05/06 12:40:41;;;;;;;1.37;1.37;;;;;;;;;;4930323;29;20513;-75
2023/05/06 12:43:08;;;;;;;1.70;1.60;;;;;;;;;;4947542;29;20776;-77
2023/05/06 12:45:34;;;;;;;1.43;1.43;;;;;;;;;;4943783;29;20776;-77
2023/05/06 12:48:01;;;;;;;1.40;1.30;;;;;;;;;;4938284;29;20874;-76
2023/05/06 12:50:37;;;;;;;1.40;1.40;;;;;;;;;;4943850;29;20581;-77
2023/05/06 12:53:04;;;;;;;1.53;1.53;;;;;;;;;;4944039;29;20434;-77
2023/05/06 12:55:31;;;;;;;1.93;1.70;;;;;;;;;;4943674;29;20572;-78
2023/05/06 12:57:57;;;;;;;1.70;1.70;;;;;;;;;;4947308;29;20465;-76
2023/05/06 13:00:23;;;;;;;1.40;1.40;;;;;;;;;;4944178;29;20446;-78
2023/05/06 13:02:49;;;;;;;1.43;1.43;;;;;;;;;;4946736;29;20441;-77
2023/05/06 13:05:15;;;;;;;2.20;2.20;;;;;;;;;;4941087;29;20552;-78
2023/05/06 13:07:42;;;;;;;2.60;2.00;;;;;;;;;;4947201;29;20445;-77
2023/05/06 13:10:08;;;;;;;1.43;1.40;;;;;;;;;;4942392;29;21039;-77
2023/05/06 13:12:34;;;;;;;1.67;1.67;;;;;;;;;;4934070;29;20501;-77
2023/05/06 13:15:00;;;;;;;1.73;1.73;;;;;;;;;;4942473;29;20457;-77
2023/05/06 13:17:27;;;;;;;1.53;1.50;;;;;;;;;;4929596;29;20411;-78
2023/05/06 13:19:53;;;;;;;1.67;1.60;;;;;;;;;;4919814;29;20520;-77
2023/05/06 13:22:20;;;;;;;1.90;1.80;;;;;;;;;;4927738;29;20495;-77
2023/05/06 13:24:46;;;;;;;1.83;1.83;;;;;;;;;;4937597;29;20438;-77
2023/05/06 13:27:12;;;;;;;1.27;1.27;;;;;;;;;;4947561;29;20781;-77
2023/05/06 13:29:38;;;;;;;1.30;1.30;;;;;;;;;;4941626;28;20470;-78
2023/05/06 13:32:04;;;;;;;1.83;1.83;;;;;;;;;;4937306;29;20410;-77
2023/05/06 13:34:30;;;;;;;1.70;1.60;;;;;;;;;;4942163;29;20583;-77
2023/05/06 13:36:56;;;;;;;1.43;1.43;;;;;;;;;;4945665;29;20829;-78
2023/05/06 13:39:22;;;;;;;1.33;1.33;;;;;;;;;;4938571;29;20445;-77
2023/05/06 13:41:49;;;;;;;1.27;1.27;;;;;;;;;;4942740;29;20557;-77
2023/05/06 13:44:16;;;;;;;1.40;1.40;;;;;;;;;;4935239;29;20430;-77
2023/05/06 13:46:42;;;;;;;2.70;2.47;;;;;;;;;;4941496;29;20435;-76
2023/05/06 13:49:08;;;;;;;2.77;2.67;;;;;;;;;;4942852;29;20705;-75
2023/05/06 13:51:34;;;;;;;11.53;10.80;;;;;;;;;;4941312;29;21087;-76
2023/05/06 13:54:00;;;;;;;8.87;8.37;;;;;;;;;;4941275;29;20438;-76
2023/05/06 13:56:26;;;;;;;1.23;1.23;;;;;;;;;;4930208;29;20446;-76
2023/05/06 13:58:53;;;;;;;1.57;1.57;;;;;;;;;;4943410;28;20437;-78
2023/05/06 14:01:22;;;;;;;2.17;1.40;;;;;;;;;;4928338;29;20502;-76
2023/05/06 14:03:48;;;;;;;2.60;2.50;;;;;;;;;;4939187;29;20441;-76
2023/05/06 14:06:14;;;;;;;2.10;2.10;;;;;;;;;;4940432;29;20433;-76
2023/05/06 14:08:40;;;;;;;4.13;2.07;;;;;;;;;;4942336;29;20453;-76
2023/05/06 14:11:06;;;;;;;1.80;1.80;;;;;;;;;;4938161;29;20513;-76
2023/05/06 14:13:33;;;;;;;1.67;1.67;;;;;;;;;;4937682;29;20954;-75
2023/05/06 14:15:59;;;;;;;2.47;2.30;;;;;;;;;;4934704;29;20846;-78
2023/05/06 14:18:25;;;;;;;2.77;1.50;;;;;;;;;;4940014;29;20446;-77
2023/05/06 14:20:52;;;;;;;1.60;1.50;;;;;;;;;;4936400;29;20402;-76
2023/05/06 14:23:18;;;;;;;1.87;1.87;;;;;;;;;;4932620;29;20529;-77
2023/05/06 14:25:44;;;;;;;3.67;2.17;;;;;;;;;;4937063;29;20399;-77
2023/05/06 14:28:11;;;;;;;2.30;1.53;;;;;;;;;;4940362;28;20442;-76
2023/05/06 14:30:37;;;;;;;1.90;1.53;;;;;;;;;;4940107;29;20458;-77
2023/05/06 14:33:03;;;;;;;1.30;1.30;;;;;;;;;;4941554;29;20449;-77